sensor_id;sensor_type;location;lat;lon;timestamp;P1;durP1;ratioP1;P2;durP2;ratioP2
40661;SDS011;26349;51.202;4.444;2022-07-05T00:01:46;3.60;;;3.30;;
40661;SDS011;26349;51.202;4.444;2022-07-05T00:04:12;5.87;;;3.80;;
40661;SDS011;26349;51.202;4.444;2022-07-05T00:06:37;7.83;;;3.80;;
40661;SDS011;26349;51.202;4.444;2022-07-05T00:09:23;7.15;;;4.45;;
40661;SDS011;26349;51.202;4.444;2022-07-05T00:11:49;7.25;;;4.20;;
40661;SDS011;26349;51.202;4.444;2022-07-05T00:14:15;4.83;;;4.33;;
40661;SDS011;26349;51.202;4.444;2022-07-05T00:16:41;6.10;;;4.47;;
40661;SDS011;26349;51.202;4.444;2022-07-05T00:19:06;3.60;;;3.30;;
40661;SDS011;26349;51.202;4.444;2022-07-05T00:21:32;6.33;;;4.20;;
40661;SDS011;26349;51.202;4.444;2022-07-05T00:23:58;4.90;;;3.73;;
40661;SDS011;26349;51.202;4.444;2022-07-05T00:26:23;5.13;;;4.23;;
40661;SDS011;26349;51.202;4.444;2022-07-05T00:28:49;5.27;;;4.37;;
40661;SDS011;26349;51.202;4.444;2022-07-05T00:31:15;9.20;;;3.93;;
40661;SDS011;26349;51.202;4.444;2022-07-05T00:33:41;5.03;;;3.60;;
40661;SDS011;26349;51.202;4.444;2022-07-05T00:36:06;3.90;;;3.50;;
40661;SDS011;26349;51.202;4.444;2022-07-05T00:38:33;3.87;;;3.40;;
40661;SDS011;26349;51.202;4.444;2022-07-05T00:40:59;6.53;;;4.18;;
40661;SDS011;26349;51.202;4.444;2022-07-05T00:43:24;5.77;;;5.00;;
40661;SDS011;26349;51.202;4.444;2022-07-05T00:45:50;8.03;;;4.50;;
40661;SDS011;26349;51.202;4.444;2022-07-05T00:48:16;9.53;;;4.80;;
40661;SDS011;26349;51.202;4.444;2022-07-05T00:50:41;5.17;;;4.67;;
40661;SDS011;26349;51.202;4.444;2022-07-05T00:53:07;7.15;;;4.13;;
40661;SDS011;26349;51.202;4.444;2022-07-05T00:55:34;6.63;;;5.00;;
40661;SDS011;26349;51.202;4.444;2022-07-05T00:58:15;7.77;;;4.73;;
40661;SDS011;26349;51.202;4.444;2022-07-05T01:00:40;8.45;;;5.05;;
40661;SDS011;26349;51.202;4.444;2022-07-05T01:03:06;8.00;;;4.70;;
40661;SDS011;26349;51.202;4.444;2022-07-05T01:05:32;5.50;;;4.47;;
40661;SDS011;26349;51.202;4.444;2022-07-05T01:07:59;6.53;;;4.30;;
40661;SDS011;26349;51.202;4.444;2022-07-05T01:10:25;5.03;;;4.30;;
40661;SDS011;26349;51.202;4.444;2022-07-05T01:12:52;5.97;;;4.03;;
40661;SDS011;26349;51.202;4.444;2022-07-05T01:15:20;6.05;;;4.50;;
40661;SDS011;26349;51.202;4.444;2022-07-05T01:20:37;9.13;;;5.13;;
40661;SDS011;26349;51.202;4.444;2022-07-05T01:23:03;7.00;;;4.47;;
40661;SDS011;26349;51.202;4.444;2022-07-05T01:25:29;6.50;;;5.07;;
40661;SDS011;26349;51.202;4.444;2022-07-05T01:27:56;7.85;;;4.55;;
40661;SDS011;26349;51.202;4.444;2022-07-05T01:30:24;8.05;;;5.45;;
40661;SDS011;26349;51.202;4.444;2022-07-05T01:32:50;9.75;;;4.35;;
40661;SDS011;26349;51.202;4.444;2022-07-05T01:35:19;8.53;;;4.70;;
40661;SDS011;26349;51.202;4.444;2022-07-05T01:37:48;6.32;;;4.30;;
40661;SDS011;26349;51.202;4.444;2022-07-05T01:40:15;8.43;;;4.45;;
40661;SDS011;26349;51.202;4.444;2022-07-05T01:42:42;6.28;;;4.70;;
40661;SDS011;26349;51.202;4.444;2022-07-05T01:45:08;7.10;;;4.80;;
40661;SDS011;26349;51.202;4.444;2022-07-05T01:47:39;7.30;;;4.30;;
40661;SDS011;26349;51.202;4.444;2022-07-05T01:50:09;8.35;;;4.70;;
40661;SDS011;26349;51.202;4.444;2022-07-05T01:52:38;6.32;;;4.30;;
40661;SDS011;26349;51.202;4.444;2022-07-05T01:55:08;5.93;;;3.72;;
40661;SDS011;26349;51.202;4.444;2022-07-05T01:57:34;9.13;;;4.57;;
40661;SDS011;26349;51.202;4.444;2022-07-05T02:00:00;6.63;;;4.18;;
40661;SDS011;26349;51.202;4.444;2022-07-05T02:02:26;7.10;;;4.63;;
40661;SDS011;26349;51.202;4.444;2022-07-05T02:04:52;7.80;;;4.43;;
40661;SDS011;26349;51.202;4.444;2022-07-05T02:07:18;4.87;;;4.37;;
40661;SDS011;26349;51.202;4.444;2022-07-05T02:09:43;5.27;;;3.70;;
40661;SDS011;26349;51.202;4.444;2022-07-05T02:12:09;4.50;;;4.10;;
40661;SDS011;26349;51.202;4.444;2022-07-05T02:14:35;8.17;;;3.97;;
40661;SDS011;26349;51.202;4.444;2022-07-05T02:17:01;7.27;;;4.10;;
40661;SDS011;26349;51.202;4.444;2022-07-05T02:19:27;7.33;;;4.20;;
40661;SDS011;26349;51.202;4.444;2022-07-05T02:21:52;6.00;;;3.93;;
40661;SDS011;26349;51.202;4.444;2022-07-05T02:24:19;8.67;;;4.70;;
40661;SDS011;26349;51.202;4.444;2022-07-05T02:26:45;7.45;;;4.05;;
40661;SDS011;26349;51.202;4.444;2022-07-05T02:29:12;6.63;;;4.97;;
40661;SDS011;26349;51.202;4.444;2022-07-05T02:31:38;5.00;;;4.60;;
40661;SDS011;26349;51.202;4.444;2022-07-05T02:34:03;10.93;;;4.63;;
40661;SDS011;26349;51.202;4.444;2022-07-05T02:36:29;7.73;;;5.90;;
40661;SDS011;26349;51.202;4.444;2022-07-05T02:38:55;9.33;;;5.70;;
40661;SDS011;26349;51.202;4.444;2022-07-05T02:41:20;7.23;;;5.20;;
40661;SDS011;26349;51.202;4.444;2022-07-05T02:43:46;10.03;;;5.80;;
40661;SDS011;26349;51.202;4.444;2022-07-05T02:46:12;11.00;;;5.93;;
40661;SDS011;26349;51.202;4.444;2022-07-05T02:48:56;7.83;;;5.33;;
40661;SDS011;26349;51.202;4.444;2022-07-05T02:51:22;9.55;;;5.40;;
40661;SDS011;26349;51.202;4.444;2022-07-05T02:53:47;11.77;;;6.10;;
40661;SDS011;26349;51.202;4.444;2022-07-05T02:56:13;10.53;;;6.17;;
40661;SDS011;26349;51.202;4.444;2022-07-05T02:58:39;7.40;;;5.27;;
40661;SDS011;26349;51.202;4.444;2022-07-05T03:01:04;9.40;;;5.57;;
40661;SDS011;26349;51.202;4.444;2022-07-05T03:03:30;15.20;;;6.50;;
40661;SDS011;26349;51.202;4.444;2022-07-05T03:05:56;11.13;;;7.47;;
40661;SDS011;26349;51.202;4.444;2022-07-05T03:08:21;8.57;;;6.30;;
40661;SDS011;26349;51.202;4.444;2022-07-05T03:10:55;6.53;;;5.53;;
40661;SDS011;26349;51.202;4.444;2022-07-05T03:13:21;14.02;;;6.28;;
40661;SDS011;26349;51.202;4.444;2022-07-05T03:15:47;10.77;;;7.33;;
40661;SDS011;26349;51.202;4.444;2022-07-05T03:18:12;8.10;;;6.33;;
40661;SDS011;26349;51.202;4.444;2022-07-05T03:20:38;7.80;;;7.03;;
40661;SDS011;26349;51.202;4.444;2022-07-05T03:23:04;12.57;;;7.17;;
40661;SDS011;26349;51.202;4.444;2022-07-05T03:25:30;16.27;;;6.95;;
40661;SDS011;26349;51.202;4.444;2022-07-05T03:27:55;11.70;;;6.43;;
40661;SDS011;26349;51.202;4.444;2022-07-05T03:30:21;10.20;;;6.33;;
40661;SDS011;26349;51.202;4.444;2022-07-05T03:38:40;6.93;;;5.28;;
40661;SDS011;26349;51.202;4.444;2022-07-05T03:41:06;6.90;;;6.20;;
40661;SDS011;26349;51.202;4.444;2022-07-05T03:43:32;11.00;;;7.10;;
40661;SDS011;26349;51.202;4.444;2022-07-05T03:45:57;10.70;;;7.20;;
40661;SDS011;26349;51.202;4.444;2022-07-05T03:48:23;10.70;;;7.10;;
40661;SDS011;26349;51.202;4.444;2022-07-05T03:50:49;9.33;;;6.10;;
40661;SDS011;26349;51.202;4.444;2022-07-05T03:53:14;9.30;;;6.03;;
40661;SDS011;26349;51.202;4.444;2022-07-05T03:55:44;10.93;;;7.77;;
40661;SDS011;26349;51.202;4.444;2022-07-05T03:58:09;14.40;;;7.03;;
40661;SDS011;26349;51.202;4.444;2022-07-05T04:00:35;7.17;;;5.93;;
40661;SDS011;26349;51.202;4.444;2022-07-05T04:03:01;7.80;;;6.20;;
40661;SDS011;26349;51.202;4.444;2022-07-05T04:05:27;13.40;;;6.10;;
40661;SDS011;26349;51.202;4.444;2022-07-05T04:07:53;11.73;;;5.73;;
40661;SDS011;26349;51.202;4.444;2022-07-05T04:10:20;9.50;;;5.82;;
40661;SDS011;26349;51.202;4.444;2022-07-05T04:12:46;28.77;;;6.60;;
40661;SDS011;26349;51.202;4.444;2022-07-05T04:15:12;14.10;;;6.23;;
40661;SDS011;26349;51.202;4.444;2022-07-05T04:17:46;14.32;;;7.18;;
40661;SDS011;26349;51.202;4.444;2022-07-05T04:20:11;14.98;;;7.55;;
40661;SDS011;26349;51.202;4.444;2022-07-05T04:22:37;5.97;;;5.27;;
40661;SDS011;26349;51.202;4.444;2022-07-05T04:25:03;11.50;;;6.57;;
40661;SDS011;26349;51.202;4.444;2022-07-05T04:27:41;10.38;;;6.38;;
40661;SDS011;26349;51.202;4.444;2022-07-05T04:30:07;8.52;;;6.97;;
40661;SDS011;26349;51.202;4.444;2022-07-05T04:32:34;8.57;;;6.00;;
40661;SDS011;26349;51.202;4.444;2022-07-05T04:34:59;10.63;;;6.13;;
40661;SDS011;26349;51.202;4.444;2022-07-05T04:37:25;18.23;;;6.17;;
40661;SDS011;26349;51.202;4.444;2022-07-05T04:39:51;8.20;;;5.60;;
40661;SDS011;26349;51.202;4.444;2022-07-05T04:42:16;10.00;;;6.17;;
40661;SDS011;26349;51.202;4.444;2022-07-05T04:44:42;9.43;;;5.90;;
40661;SDS011;26349;51.202;4.444;2022-07-05T04:47:08;9.70;;;6.57;;
40661;SDS011;26349;51.202;4.444;2022-07-05T04:49:33;12.57;;;6.67;;
40661;SDS011;26349;51.202;4.444;2022-07-05T04:51:59;7.57;;;6.50;;
40661;SDS011;26349;51.202;4.444;2022-07-05T04:54:25;10.63;;;5.40;;
40661;SDS011;26349;51.202;4.444;2022-07-05T04:56:50;9.10;;;5.77;;
40661;SDS011;26349;51.202;4.444;2022-07-05T04:59:16;9.50;;;6.00;;
40661;SDS011;26349;51.202;4.444;2022-07-05T05:01:42;8.47;;;6.03;;
40661;SDS011;26349;51.202;4.444;2022-07-05T05:04:07;11.13;;;6.80;;
40661;SDS011;26349;51.202;4.444;2022-07-05T05:06:33;12.37;;;6.90;;
40661;SDS011;26349;51.202;4.444;2022-07-05T05:08:58;9.20;;;6.20;;
40661;SDS011;26349;51.202;4.444;2022-07-05T05:11:24;8.80;;;6.03;;
40661;SDS011;26349;51.202;4.444;2022-07-05T05:13:50;8.10;;;6.17;;
40661;SDS011;26349;51.202;4.444;2022-07-05T05:16:15;8.43;;;6.33;;
40661;SDS011;26349;51.202;4.444;2022-07-05T05:18:41;7.77;;;6.70;;
40661;SDS011;26349;51.202;4.444;2022-07-05T05:21:07;11.97;;;7.30;;
40661;SDS011;26349;51.202;4.444;2022-07-05T05:23:32;8.57;;;6.00;;
40661;SDS011;26349;51.202;4.444;2022-07-05T05:25:58;5.50;;;4.60;;
40661;SDS011;26349;51.202;4.444;2022-07-05T05:28:24;7.07;;;4.57;;
40661;SDS011;26349;51.202;4.444;2022-07-05T05:30:49;8.90;;;5.63;;
40661;SDS011;26349;51.202;4.444;2022-07-05T05:33:15;14.90;;;6.33;;
40661;SDS011;26349;51.202;4.444;2022-07-05T05:35:41;5.30;;;4.80;;
40661;SDS011;26349;51.202;4.444;2022-07-05T05:38:07;8.43;;;4.50;;
40661;SDS011;26349;51.202;4.444;2022-07-05T05:40:33;6.53;;;4.20;;
40661;SDS011;26349;51.202;4.444;2022-07-05T05:43:03;6.90;;;4.77;;
40661;SDS011;26349;51.202;4.444;2022-07-05T05:45:29;10.20;;;6.10;;
40661;SDS011;26349;51.202;4.444;2022-07-05T05:47:56;6.47;;;5.77;;
40661;SDS011;26349;51.202;4.444;2022-07-05T05:50:24;7.07;;;5.20;;
40661;SDS011;26349;51.202;4.444;2022-07-05T05:52:52;7.70;;;4.63;;
40661;SDS011;26349;51.202;4.444;2022-07-05T05:55:19;5.60;;;4.37;;
40661;SDS011;26349;51.202;4.444;2022-07-05T06:00:16;15.97;;;5.87;;
40661;SDS011;26349;51.202;4.444;2022-07-05T06:02:43;11.73;;;5.30;;
40661;SDS011;26349;51.202;4.444;2022-07-05T06:05:09;11.13;;;6.27;;
40661;SDS011;26349;51.202;4.444;2022-07-05T06:07:46;12.67;;;6.77;;
40661;SDS011;26349;51.202;4.444;2022-07-05T06:10:17;11.93;;;6.50;;
40661;SDS011;26349;51.202;4.444;2022-07-05T06:12:54;14.53;;;6.90;;
40661;SDS011;26349;51.202;4.444;2022-07-05T06:15:22;10.77;;;5.63;;
40661;SDS011;26349;51.202;4.444;2022-07-05T06:17:47;6.43;;;4.63;;
40661;SDS011;26349;51.202;4.444;2022-07-05T06:20:18;12.63;;;7.40;;
40661;SDS011;26349;51.202;4.444;2022-07-05T06:22:45;14.17;;;7.90;;
40661;SDS011;26349;51.202;4.444;2022-07-05T06:25:11;12.20;;;7.50;;
40661;SDS011;26349;51.202;4.444;2022-07-05T06:27:38;7.00;;;4.70;;
40661;SDS011;26349;51.202;4.444;2022-07-05T06:30:10;11.23;;;7.40;;
40661;SDS011;26349;51.202;4.444;2022-07-05T06:32:39;11.90;;;7.00;;
40661;SDS011;26349;51.202;4.444;2022-07-05T06:35:04;10.60;;;5.80;;
40661;SDS011;26349;51.202;4.444;2022-07-05T06:37:41;9.60;;;4.93;;
40661;SDS011;26349;51.202;4.444;2022-07-05T06:40:08;9.40;;;5.23;;
40661;SDS011;26349;51.202;4.444;2022-07-05T06:42:34;7.70;;;4.67;;
40661;SDS011;26349;51.202;4.444;2022-07-05T06:45:00;6.53;;;4.67;;
40661;SDS011;26349;51.202;4.444;2022-07-05T06:47:26;7.73;;;4.57;;
40661;SDS011;26349;51.202;4.444;2022-07-05T06:49:52;8.70;;;4.40;;
40661;SDS011;26349;51.202;4.444;2022-07-05T06:52:17;12.37;;;5.50;;
40661;SDS011;26349;51.202;4.444;2022-07-05T06:54:43;8.20;;;4.70;;
40661;SDS011;26349;51.202;4.444;2022-07-05T06:59:38;8.23;;;5.43;;
40661;SDS011;26349;51.202;4.444;2022-07-05T07:02:04;10.57;;;5.93;;
40661;SDS011;26349;51.202;4.444;2022-07-05T07:04:29;9.20;;;4.40;;
40661;SDS011;26349;51.202;4.444;2022-07-05T07:06:55;7.20;;;4.30;;
40661;SDS011;26349;51.202;4.444;2022-07-05T07:09:21;7.37;;;4.90;;
40661;SDS011;26349;51.202;4.444;2022-07-05T07:11:48;10.53;;;5.53;;
40661;SDS011;26349;51.202;4.444;2022-07-05T07:14:14;13.77;;;6.10;;
40661;SDS011;26349;51.202;4.444;2022-07-05T07:16:41;11.70;;;5.87;;
40661;SDS011;26349;51.202;4.444;2022-07-05T07:19:07;15.90;;;6.00;;
40661;SDS011;26349;51.202;4.444;2022-07-05T07:21:33;9.00;;;6.17;;
40661;SDS011;26349;51.202;4.444;2022-07-05T07:24:11;9.53;;;5.60;;
40661;SDS011;26349;51.202;4.444;2022-07-05T07:26:37;16.13;;;6.00;;
40661;SDS011;26349;51.202;4.444;2022-07-05T07:29:21;8.70;;;4.93;;
40661;SDS011;26349;51.202;4.444;2022-07-05T07:31:47;11.30;;;4.20;;
40661;SDS011;26349;51.202;4.444;2022-07-05T07:34:13;5.90;;;4.10;;
40661;SDS011;26349;51.202;4.444;2022-07-05T07:36:39;12.17;;;4.70;;
40661;SDS011;26349;51.202;4.444;2022-07-05T07:39:05;11.23;;;4.47;;
40661;SDS011;26349;51.202;4.444;2022-07-05T07:41:31;10.80;;;4.50;;
40661;SDS011;26349;51.202;4.444;2022-07-05T07:43:57;7.10;;;3.60;;
40661;SDS011;26349;51.202;4.444;2022-07-05T07:46:24;7.53;;;5.00;;
40661;SDS011;26349;51.202;4.444;2022-07-05T07:48:51;9.87;;;4.07;;
40661;SDS011;26349;51.202;4.444;2022-07-05T07:51:16;12.70;;;4.57;;
40661;SDS011;26349;51.202;4.444;2022-07-05T07:53:46;13.40;;;4.43;;
40661;SDS011;26349;51.202;4.444;2022-07-05T07:56:12;8.80;;;3.93;;
40661;SDS011;26349;51.202;4.444;2022-07-05T07:58:38;7.77;;;4.60;;
40661;SDS011;26349;51.202;4.444;2022-07-05T08:01:05;13.20;;;4.23;;
40661;SDS011;26349;51.202;4.444;2022-07-05T08:03:36;7.63;;;3.73;;
40661;SDS011;26349;51.202;4.444;2022-07-05T08:06:02;4.53;;;3.00;;
40661;SDS011;26349;51.202;4.444;2022-07-05T08:08:28;7.07;;;3.33;;
40661;SDS011;26349;51.202;4.444;2022-07-05T08:10:53;6.97;;;3.40;;
40661;SDS011;26349;51.202;4.444;2022-07-05T08:13:19;9.37;;;3.73;;
40661;SDS011;26349;51.202;4.444;2022-07-05T08:15:45;5.13;;;3.60;;
40661;SDS011;26349;51.202;4.444;2022-07-05T08:18:10;8.80;;;4.23;;
40661;SDS011;26349;51.202;4.444;2022-07-05T08:20:55;5.40;;;3.10;;
40661;SDS011;26349;51.202;4.444;2022-07-05T08:23:39;11.47;;;3.87;;
40661;SDS011;26349;51.202;4.444;2022-07-05T08:26:05;9.63;;;3.60;;
40661;SDS011;26349;51.202;4.444;2022-07-05T08:28:30;5.70;;;3.33;;
40661;SDS011;26349;51.202;4.444;2022-07-05T08:30:56;11.30;;;4.37;;
40661;SDS011;26349;51.202;4.444;2022-07-05T08:33:22;12.33;;;4.50;;
40661;SDS011;26349;51.202;4.444;2022-07-05T08:35:55;6.13;;;3.10;;
40661;SDS011;26349;51.202;4.444;2022-07-05T08:38:21;9.60;;;3.30;;
40661;SDS011;26349;51.202;4.444;2022-07-05T08:40:49;8.30;;;4.07;;
40661;SDS011;26349;51.202;4.444;2022-07-05T08:43:15;6.80;;;4.07;;
40661;SDS011;26349;51.202;4.444;2022-07-05T08:45:42;5.87;;;3.63;;
40661;SDS011;26349;51.202;4.444;2022-07-05T08:48:09;7.03;;;3.30;;
40661;SDS011;26349;51.202;4.444;2022-07-05T08:50:36;11.07;;;5.47;;
40661;SDS011;26349;51.202;4.444;2022-07-05T08:53:05;12.73;;;4.03;;
40661;SDS011;26349;51.202;4.444;2022-07-05T08:55:32;7.70;;;4.50;;
40661;SDS011;26349;51.202;4.444;2022-07-05T08:58:00;7.83;;;4.77;;
40661;SDS011;26349;51.202;4.444;2022-07-05T09:00:27;8.00;;;4.20;;
40661;SDS011;26349;51.202;4.444;2022-07-05T09:02:53;6.60;;;5.00;;
40661;SDS011;26349;51.202;4.444;2022-07-05T09:05:20;7.83;;;4.57;;
40661;SDS011;26349;51.202;4.444;2022-07-05T09:07:59;7.47;;;3.47;;
40661;SDS011;26349;51.202;4.444;2022-07-05T09:10:30;4.10;;;3.30;;
40661;SDS011;26349;51.202;4.444;2022-07-05T09:12:58;3.20;;;2.40;;
40661;SDS011;26349;51.202;4.444;2022-07-05T09:15:24;6.23;;;3.70;;
40661;SDS011;26349;51.202;4.444;2022-07-05T09:17:50;4.97;;;2.70;;
40661;SDS011;26349;51.202;4.444;2022-07-05T09:20:16;7.10;;;3.40;;
40661;SDS011;26349;51.202;4.444;2022-07-05T09:25:21;7.50;;;3.20;;
40661;SDS011;26349;51.202;4.444;2022-07-05T09:27:55;7.20;;;3.30;;
40661;SDS011;26349;51.202;4.444;2022-07-05T09:30:38;8.23;;;2.40;;
40661;SDS011;26349;51.202;4.444;2022-07-05T09:33:10;3.13;;;2.10;;
40661;SDS011;26349;51.202;4.444;2022-07-05T09:35:41;5.03;;;3.60;;
40661;SDS011;26349;51.202;4.444;2022-07-05T09:38:18;6.10;;;2.70;;
40661;SDS011;26349;51.202;4.444;2022-07-05T09:40:46;4.23;;;2.90;;
40661;SDS011;26349;51.202;4.444;2022-07-05T09:43:13;8.17;;;4.10;;
40661;SDS011;26349;51.202;4.444;2022-07-05T09:45:40;8.07;;;3.70;;
40661;SDS011;26349;51.202;4.444;2022-07-05T09:48:16;6.10;;;2.83;;
40661;SDS011;26349;51.202;4.444;2022-07-05T09:50:42;6.67;;;3.30;;
40661;SDS011;26349;51.202;4.444;2022-07-05T09:53:11;4.50;;;2.77;;
40661;SDS011;26349;51.202;4.444;2022-07-05T09:55:37;5.50;;;2.67;;
40661;SDS011;26349;51.202;4.444;2022-07-05T09:58:03;6.40;;;3.63;;
40661;SDS011;26349;51.202;4.444;2022-07-05T10:00:33;7.20;;;5.30;;
40661;SDS011;26349;51.202;4.444;2022-07-05T10:02:59;9.87;;;3.80;;
40661;SDS011;26349;51.202;4.444;2022-07-05T10:05:28;6.63;;;4.27;;
40661;SDS011;26349;51.202;4.444;2022-07-05T10:07:56;6.80;;;3.30;;
40661;SDS011;26349;51.202;4.444;2022-07-05T10:10:24;8.17;;;3.37;;
40661;SDS011;26349;51.202;4.444;2022-07-05T10:12:52;6.60;;;4.10;;
40661;SDS011;26349;51.202;4.444;2022-07-05T10:15:21;10.00;;;3.90;;
40661;SDS011;26349;51.202;4.444;2022-07-05T10:20:54;8.63;;;4.00;;
40661;SDS011;26349;51.202;4.444;2022-07-05T10:23:20;9.10;;;3.97;;
40661;SDS011;26349;51.202;4.444;2022-07-05T10:25:47;10.53;;;4.17;;
40661;SDS011;26349;51.202;4.444;2022-07-05T10:28:19;7.50;;;4.47;;
40661;SDS011;26349;51.202;4.444;2022-07-05T10:30:49;8.20;;;4.37;;
40661;SDS011;26349;51.202;4.444;2022-07-05T10:33:17;3.83;;;3.00;;
40661;SDS011;26349;51.202;4.444;2022-07-05T10:35:46;5.40;;;4.17;;
40661;SDS011;26349;51.202;4.444;2022-07-05T10:38:12;4.87;;;3.40;;
40661;SDS011;26349;51.202;4.444;2022-07-05T10:40:40;2.97;;;2.73;;
40661;SDS011;26349;51.202;4.444;2022-07-05T10:43:08;4.53;;;2.73;;
40661;SDS011;26349;51.202;4.444;2022-07-05T10:45:35;6.33;;;3.07;;
40661;SDS011;26349;51.202;4.444;2022-07-05T10:58:36;6.10;;;3.53;;
40661;SDS011;26349;51.202;4.444;2022-07-05T11:03:45;10.50;;;3.47;;
40661;SDS011;26349;51.202;4.444;2022-07-05T11:14:01;10.77;;;4.80;;
40661;SDS011;26349;51.202;4.444;2022-07-05T11:19:10;4.20;;;2.70;;
40661;SDS011;26349;51.202;4.444;2022-07-05T11:24:34;4.83;;;2.53;;
40661;SDS011;26349;51.202;4.444;2022-07-05T11:27:02;5.37;;;1.93;;
40661;SDS011;26349;51.202;4.444;2022-07-05T11:32:07;6.80;;;2.13;;
40661;SDS011;26349;51.202;4.444;2022-07-05T11:34:35;10.00;;;3.03;;
40661;SDS011;26349;51.202;4.444;2022-07-05T11:40:25;3.20;;;2.00;;
40661;SDS011;26349;51.202;4.444;2022-07-05T11:42:46;3.83;;;2.27;;
40661;SDS011;26349;51.202;4.444;2022-07-05T11:45:13;13.00;;;2.07;;
40661;SDS011;26349;51.202;4.444;2022-07-05T11:47:40;4.23;;;2.40;;
40661;SDS011;26349;51.202;4.444;2022-07-05T11:50:06;3.40;;;2.13;;
40661;SDS011;26349;51.202;4.444;2022-07-05T11:52:34;3.70;;;2.07;;
40661;SDS011;26349;51.202;4.444;2022-07-05T11:55:05;5.23;;;2.47;;
40661;SDS011;26349;51.202;4.444;2022-07-05T11:57:32;3.47;;;1.80;;
40661;SDS011;26349;51.202;4.444;2022-07-05T11:59:58;4.97;;;1.97;;
40661;SDS011;26349;51.202;4.444;2022-07-05T12:02:23;11.33;;;2.03;;
40661;SDS011;26349;51.202;4.444;2022-07-05T12:04:50;6.00;;;1.70;;
40661;SDS011;26349;51.202;4.444;2022-07-05T12:07:31;3.30;;;2.20;;
40661;SDS011;26349;51.202;4.444;2022-07-05T12:09:58;4.27;;;1.73;;
40661;SDS011;26349;51.202;4.444;2022-07-05T12:12:44;7.00;;;2.60;;
40661;SDS011;26349;51.202;4.444;2022-07-05T12:15:20;3.40;;;1.60;;
40661;SDS011;26349;51.202;4.444;2022-07-05T12:17:47;3.03;;;1.60;;
40661;SDS011;26349;51.202;4.444;2022-07-05T12:20:15;3.70;;;1.50;;
40661;SDS011;26349;51.202;4.444;2022-07-05T12:22:47;3.50;;;1.70;;
40661;SDS011;26349;51.202;4.444;2022-07-05T12:25:23;8.63;;;2.33;;
40661;SDS011;26349;51.202;4.444;2022-07-05T12:27:51;6.63;;;1.90;;
40661;SDS011;26349;51.202;4.444;2022-07-05T12:30:18;2.40;;;1.60;;
40661;SDS011;26349;51.202;4.444;2022-07-05T12:32:57;3.73;;;2.10;;
40661;SDS011;26349;51.202;4.444;2022-07-05T12:37:54;3.83;;;1.70;;
40661;SDS011;26349;51.202;4.444;2022-07-05T12:40:21;4.30;;;1.87;;
40661;SDS011;26349;51.202;4.444;2022-07-05T12:42:59;2.90;;;1.77;;
40661;SDS011;26349;51.202;4.444;2022-07-05T12:46:06;3.97;;;1.73;;
40661;SDS011;26349;51.202;4.444;2022-07-05T12:50:59;4.20;;;2.00;;
40661;SDS011;26349;51.202;4.444;2022-07-05T12:53:25;5.23;;;1.93;;
40661;SDS011;26349;51.202;4.444;2022-07-05T12:56:11;4.27;;;1.90;;
40661;SDS011;26349;51.202;4.444;2022-07-05T12:58:58;3.40;;;1.90;;
40661;SDS011;26349;51.202;4.444;2022-07-05T13:01:27;4.17;;;1.50;;
40661;SDS011;26349;51.202;4.444;2022-07-05T13:14:45;2.20;;;1.50;;
40661;SDS011;26349;51.202;4.444;2022-07-05T13:17:12;4.40;;;1.90;;
40661;SDS011;26349;51.202;4.444;2022-07-05T13:19:40;8.17;;;2.17;;
40661;SDS011;26349;51.202;4.444;2022-07-05T13:22:06;4.33;;;1.60;;
40661;SDS011;26349;51.202;4.444;2022-07-05T13:24:32;4.80;;;1.80;;
40661;SDS011;26349;51.202;4.444;2022-07-05T13:26:59;5.17;;;1.80;;
40661;SDS011;26349;51.202;4.444;2022-07-05T13:29:25;5.40;;;1.93;;
40661;SDS011;26349;51.202;4.444;2022-07-05T13:31:51;3.67;;;1.60;;
40661;SDS011;26349;51.202;4.444;2022-07-05T13:34:17;3.63;;;1.17;;
40661;SDS011;26349;51.202;4.444;2022-07-05T13:36:43;4.50;;;1.63;;
40661;SDS011;26349;51.202;4.444;2022-07-05T13:39:09;5.20;;;2.00;;
40661;SDS011;26349;51.202;4.444;2022-07-05T13:41:36;4.20;;;1.90;;
40661;SDS011;26349;51.202;4.444;2022-07-05T13:44:02;5.30;;;1.43;;
40661;SDS011;26349;51.202;4.444;2022-07-05T13:46:28;4.13;;;1.57;;
40661;SDS011;26349;51.202;4.444;2022-07-05T13:48:54;4.23;;;1.63;;
40661;SDS011;26349;51.202;4.444;2022-07-05T13:51:20;7.07;;;1.70;;
40661;SDS011;26349;51.202;4.444;2022-07-05T13:53:45;4.57;;;1.80;;
40661;SDS011;26349;51.202;4.444;2022-07-05T13:56:11;4.37;;;1.40;;
40661;SDS011;26349;51.202;4.444;2022-07-05T13:58:37;7.80;;;2.33;;
40661;SDS011;26349;51.202;4.444;2022-07-05T14:01:03;6.80;;;1.50;;
40661;SDS011;26349;51.202;4.444;2022-07-05T14:03:29;7.97;;;1.83;;
40661;SDS011;26349;51.202;4.444;2022-07-05T14:05:55;8.53;;;1.60;;
40661;SDS011;26349;51.202;4.444;2022-07-05T14:08:21;2.70;;;1.30;;
40661;SDS011;26349;51.202;4.444;2022-07-05T14:10:50;2.13;;;1.40;;
40661;SDS011;26349;51.202;4.444;2022-07-05T14:13:19;6.57;;;1.60;;
40661;SDS011;26349;51.202;4.444;2022-07-05T14:15:46;4.83;;;1.57;;
40661;SDS011;26349;51.202;4.444;2022-07-05T14:18:16;7.60;;;1.60;;
40661;SDS011;26349;51.202;4.444;2022-07-05T14:20:44;3.40;;;1.77;;
40661;SDS011;26349;51.202;4.444;2022-07-05T14:23:11;4.87;;;1.80;;
40661;SDS011;26349;51.202;4.444;2022-07-05T14:25:37;2.67;;;1.30;;
40661;SDS011;26349;51.202;4.444;2022-07-05T14:28:04;10.03;;;1.53;;
40661;SDS011;26349;51.202;4.444;2022-07-05T14:30:39;8.83;;;1.80;;
40661;SDS011;26349;51.202;4.444;2022-07-05T14:33:06;4.33;;;1.60;;
40661;SDS011;26349;51.202;4.444;2022-07-05T14:35:32;2.17;;;1.57;;
40661;SDS011;26349;51.202;4.444;2022-07-05T14:37:58;4.90;;;1.60;;
40661;SDS011;26349;51.202;4.444;2022-07-05T14:40:25;4.37;;;1.40;;
40661;SDS011;26349;51.202;4.444;2022-07-05T14:42:54;2.37;;;1.73;;
40661;SDS011;26349;51.202;4.444;2022-07-05T14:45:20;4.13;;;1.60;;
40661;SDS011;26349;51.202;4.444;2022-07-05T14:47:46;3.13;;;1.30;;
40661;SDS011;26349;51.202;4.444;2022-07-05T14:50:13;3.57;;;1.40;;
40661;SDS011;26349;51.202;4.444;2022-07-05T14:52:39;3.30;;;1.50;;
40661;SDS011;26349;51.202;4.444;2022-07-05T14:55:05;3.83;;;1.70;;
40661;SDS011;26349;51.202;4.444;2022-07-05T14:57:31;1.70;;;1.40;;
40661;SDS011;26349;51.202;4.444;2022-07-05T14:59:57;5.10;;;1.77;;
40661;SDS011;26349;51.202;4.444;2022-07-05T15:02:22;2.37;;;1.53;;
40661;SDS011;26349;51.202;4.444;2022-07-05T15:04:48;5.30;;;1.60;;
40661;SDS011;26349;51.202;4.444;2022-07-05T15:07:14;2.87;;;1.40;;
40661;SDS011;26349;51.202;4.444;2022-07-05T15:09:41;2.27;;;1.50;;
40661;SDS011;26349;51.202;4.444;2022-07-05T15:12:06;2.30;;;1.60;;
40661;SDS011;26349;51.202;4.444;2022-07-05T15:17:10;2.80;;;1.80;;
40661;SDS011;26349;51.202;4.444;2022-07-05T15:19:36;4.13;;;1.80;;
40661;SDS011;26349;51.202;4.444;2022-07-05T15:22:04;4.17;;;2.03;;
40661;SDS011;26349;51.202;4.444;2022-07-05T15:24:30;3.67;;;1.70;;
40661;SDS011;26349;51.202;4.444;2022-07-05T15:26:56;1.83;;;1.50;;
40661;SDS011;26349;51.202;4.444;2022-07-05T15:29:22;3.13;;;1.50;;
40661;SDS011;26349;51.202;4.444;2022-07-05T15:31:49;2.50;;;1.37;;
40661;SDS011;26349;51.202;4.444;2022-07-05T15:34:15;4.13;;;1.50;;
40661;SDS011;26349;51.202;4.444;2022-07-05T15:36:41;4.43;;;1.60;;
40661;SDS011;26349;51.202;4.444;2022-07-05T15:39:07;3.73;;;1.50;;
40661;SDS011;26349;51.202;4.444;2022-07-05T15:41:33;4.30;;;2.03;;
40661;SDS011;26349;51.202;4.444;2022-07-05T15:43:59;3.00;;;1.47;;
40661;SDS011;26349;51.202;4.444;2022-07-05T15:46:25;2.40;;;1.57;;
40661;SDS011;26349;51.202;4.444;2022-07-05T15:48:51;4.13;;;1.90;;
40661;SDS011;26349;51.202;4.444;2022-07-05T15:51:19;4.20;;;1.70;;
40661;SDS011;26349;51.202;4.444;2022-07-05T15:53:45;5.40;;;1.80;;
40661;SDS011;26349;51.202;4.444;2022-07-05T15:56:11;2.40;;;1.80;;
40661;SDS011;26349;51.202;4.444;2022-07-05T15:58:37;4.20;;;1.47;;